createdAt,value
2017-09-07T00:00:15.690Z,100.00
2017-09-07T00:02:43.603Z,100.00
2017-09-07T00:05:11.580Z,100.00
2017-09-07T00:07:39.505Z,100.00
2017-09-07T00:10:07.570Z,100.00
2017-09-07T00:12:35.569Z,100.00
2017-09-07T00:15:03.595Z,100.00
2017-09-07T00:17:31.536Z,100.00
2017-09-07T00:19:59.448Z,100.00
2017-09-07T00:22:54.261Z,79.19
2017-09-07T00:25:22.162Z,79.55
2017-09-07T00:27:50.102Z,79.81
2017-09-07T00:30:18.040Z,79.89
2017-09-07T00:32:45.953Z,80.05
2017-09-07T00:35:13.847Z,80.07
2017-09-07T00:37:41.884Z,80.12
2017-09-07T00:40:09.793Z,80.05
2017-09-07T00:42:37.698Z,80.22
2017-09-07T00:45:05.736Z,80.22
2017-09-07T00:47:33.638Z,80.43
2017-09-07T00:50:01.600Z,80.54
2017-09-07T00:52:29.563Z,80.70
2017-09-07T00:54:58.046Z,80.46
2017-09-07T00:57:25.960Z,80.45
2017-09-07T00:59:53.900Z,80.41
2017-09-07T01:02:21.873Z,80.58
2017-09-07T01:04:49.793Z,80.61
2017-09-07T01:07:17.762Z,80.77
2017-09-07T01:09:45.655Z,80.74
2017-09-07T01:12:13.619Z,81.04
2017-09-07T01:14:41.565Z,80.87
2017-09-07T01:17:09.459Z,81.10
2017-09-07T01:19:37.430Z,81.09
2017-09-07T01:22:05.354Z,81.30
2017-09-07T01:24:33.319Z,81.51
2017-09-07T01:27:01.355Z,81.50
2017-09-07T01:29:29.276Z,81.50
2017-09-07T01:31:57.279Z,81.67
2017-09-07T01:34:25.620Z,81.74
2017-09-07T01:36:53.623Z,81.93
2017-09-07T01:39:21.543Z,82.22
2017-09-07T01:41:49.444Z,82.49
2017-09-07T01:44:17.355Z,82.52
2017-09-07T01:46:45.254Z,82.60
2017-09-07T01:49:13.155Z,82.78
2017-09-07T01:51:41.075Z,82.79
2017-09-07T01:54:08.991Z,82.66
2017-09-07T01:56:36.899Z,83.06
2017-09-07T01:59:04.830Z,83.32
2017-09-07T02:01:32.803Z,83.45
2017-09-07T02:04:00.770Z,83.67
2017-09-07T02:06:28.693Z,83.87
2017-09-07T02:08:56.803Z,84.20
2017-09-07T02:11:24.699Z,84.25
2017-09-07T02:13:52.615Z,84.24
2017-09-07T02:16:20.520Z,84.31
2017-09-07T02:18:48.484Z,84.52
2017-09-07T02:21:16.451Z,84.56
2017-09-07T02:23:44.356Z,84.94
2017-09-07T02:26:12.259Z,84.95
2017-09-07T02:28:40.171Z,84.99
2017-09-07T02:31:08.149Z,84.66
2017-09-07T02:33:36.200Z,84.67
2017-09-07T02:36:04.123Z,84.49
2017-09-07T02:38:32.023Z,84.56
2017-09-07T02:40:59.924Z,84.73
2017-09-07T02:43:27.835Z,84.76
2017-09-07T02:45:55.875Z,84.91
2017-09-07T02:48:23.775Z,85.12
2017-09-07T02:50:51.953Z,85.23
2017-09-07T02:53:19.859Z,85.36
2017-09-07T02:55:47.752Z,85.30
2017-09-07T02:58:15.677Z,85.46
2017-09-07T03:00:43.576Z,85.29
2017-09-07T03:03:11.470Z,85.40
2017-09-07T03:05:39.390Z,85.49
2017-09-07T03:08:07.306Z,85.90
2017-09-07T03:10:35.292Z,86.10
2017-09-07T03:13:03.215Z,86.12
2017-09-07T03:15:31.170Z,86.14
2017-09-07T03:17:59.070Z,86.36
2017-09-07T03:20:26.999Z,86.20
2017-09-07T03:22:54.917Z,86.19
2017-09-07T03:25:22.814Z,86.50
2017-09-07T03:27:50.795Z,86.51
2017-09-07T03:30:18.764Z,86.31
2017-09-07T03:32:46.687Z,86.45
2017-09-07T03:35:14.598Z,86.59
2017-09-07T03:37:42.497Z,86.54
2017-09-07T03:40:10.425Z,86.84
2017-09-07T03:42:38.394Z,86.74
2017-09-07T03:45:06.295Z,86.78
2017-09-07T03:47:34.230Z,86.82
2017-09-07T03:50:02.163Z,86.82
2017-09-07T03:52:30.165Z,87.04
2017-09-07T03:54:58.071Z,86.96
2017-09-07T03:57:26.004Z,87.09
2017-09-07T03:59:53.975Z,87.39
2017-09-07T04:02:21.949Z,87.55
2017-09-07T04:04:49.903Z,87.38
2017-09-07T04:07:17.840Z,87.58
2017-09-07T04:09:45.849Z,87.68
2017-09-07T04:12:13.777Z,87.48
2017-09-07T04:14:41.677Z,87.68
2017-09-07T04:17:09.570Z,87.74
2017-09-07T04:19:37.498Z,87.75
2017-09-07T04:22:05.386Z,87.93
2017-09-07T04:24:33.316Z,88.03
2017-09-07T04:27:01.252Z,88.01
2017-09-07T04:29:29.159Z,87.75
2017-09-07T04:31:57.154Z,87.59
2017-09-07T04:34:25.123Z,87.27
2017-09-07T04:36:53.029Z,87.20
2017-09-07T04:39:20.935Z,87.01
2017-09-07T04:41:48.938Z,86.86
2017-09-07T04:44:16.903Z,86.70
2017-09-07T04:46:45.267Z,86.57
2017-09-07T04:49:13.189Z,86.41
2017-09-07T04:51:41.086Z,86.22
2017-09-07T04:54:09.013Z,86.02
2017-09-07T04:56:37.723Z,85.77
2017-09-07T04:59:05.620Z,85.30
2017-09-07T05:01:33.535Z,85.15
2017-09-07T05:04:01.843Z,84.72
2017-09-07T05:06:29.767Z,84.67
2017-09-07T05:08:57.677Z,84.05
2017-09-07T05:11:25.640Z,83.66
2017-09-07T05:13:53.536Z,82.70
2017-09-07T05:16:21.441Z,81.62
2017-09-07T05:18:49.374Z,80.85
2017-09-07T05:21:17.274Z,80.01
2017-09-07T05:23:45.206Z,79.83
2017-09-07T05:26:13.187Z,79.42
2017-09-07T05:28:41.092Z,79.01
2017-09-07T05:31:08.984Z,78.72
2017-09-07T05:33:36.914Z,78.81
2017-09-07T05:36:04.853Z,79.15
2017-09-07T05:38:32.784Z,79.13
2017-09-07T05:41:00.794Z,79.34
2017-09-07T05:43:28.705Z,79.03
2017-09-07T05:45:56.594Z,78.47
2017-09-07T05:48:24.591Z,78.37
2017-09-07T05:50:52.496Z,78.13
2017-09-07T05:53:20.426Z,78.57
2017-09-07T05:55:48.400Z,78.66
2017-09-07T05:58:16.312Z,78.88
2017-09-07T06:00:44.229Z,78.79
2017-09-07T06:03:12.143Z,79.32
2017-09-07T06:05:40.034Z,79.04
2017-09-07T06:08:07.999Z,79.19
2017-09-07T06:10:36.398Z,79.08
2017-09-07T06:13:04.382Z,79.19
2017-09-07T06:15:32.287Z,79.19
2017-09-07T06:18:00.211Z,78.83
2017-09-07T06:20:28.195Z,78.45
2017-09-07T06:22:56.101Z,77.43
2017-09-07T06:25:24.027Z,76.07
2017-09-07T06:27:51.937Z,75.49
2017-09-07T06:30:20.227Z,74.96
2017-09-07T06:32:48.239Z,75.18
2017-09-07T06:35:16.130Z,75.06
2017-09-07T06:37:44.034Z,75.43
2017-09-07T06:40:11.968Z,75.68
2017-09-07T06:42:39.911Z,75.54
2017-09-07T06:45:07.817Z,75.57
2017-09-07T06:47:35.960Z,75.62
2017-09-07T06:50:03.859Z,75.83
2017-09-07T06:52:31.792Z,75.71
2017-09-07T06:54:59.702Z,74.39
2017-09-07T06:57:27.633Z,73.34
2017-09-07T06:59:55.531Z,73.90
2017-09-07T07:02:23.467Z,73.96
2017-09-07T07:04:51.371Z,74.60
2017-09-07T07:07:19.288Z,75.21
2017-09-07T07:09:47.225Z,74.64
2017-09-07T07:12:15.123Z,74.33
2017-09-07T07:14:43.014Z,72.73
2017-09-07T07:17:10.992Z,71.25
2017-09-07T07:19:39.283Z,69.30
2017-09-07T07:22:07.268Z,68.68
2017-09-07T07:24:35.194Z,68.83
2017-09-07T07:27:03.241Z,67.66
2017-09-07T07:29:31.172Z,67.81
2017-09-07T07:31:59.095Z,67.79
2017-09-07T07:34:26.997Z,68.11
2017-09-07T07:36:54.900Z,67.46
2017-09-07T07:39:22.888Z,63.21
2017-09-07T07:41:50.865Z,58.35
2017-09-07T07:44:18.824Z,53.09
2017-09-07T07:46:46.788Z,52.61
2017-09-07T07:49:14.859Z,53.39
2017-09-07T07:51:42.835Z,55.63
2017-09-07T07:54:10.761Z,55.66
2017-09-07T07:56:38.767Z,53.79
2017-09-07T07:59:06.719Z,52.81
2017-09-07T08:01:34.659Z,53.40
2017-09-07T08:04:02.559Z,55.25
2017-09-07T08:06:30.458Z,54.29
2017-09-07T08:08:58.379Z,54.95
2017-09-07T08:11:26.334Z,55.75
2017-09-07T08:13:54.232Z,57.65
2017-09-07T08:16:22.146Z,57.24
2017-09-07T08:18:50.054Z,57.42
2017-09-07T08:21:17.950Z,59.17
2017-09-07T08:23:45.903Z,60.40
2017-09-07T08:26:13.806Z,60.21
2017-09-07T08:28:41.714Z,58.14
2017-09-07T08:31:09.635Z,56.88
2017-09-07T08:33:37.574Z,54.28
2017-09-07T08:36:05.474Z,52.32
2017-09-07T08:38:33.395Z,50.99
2017-09-07T08:41:01.395Z,51.05
2017-09-07T08:43:29.290Z,53.71
2017-09-07T08:45:57.219Z,54.19
2017-09-07T08:48:25.140Z,55.04
2017-09-07T08:50:53.044Z,55.21
2017-09-07T08:53:20.968Z,55.87
2017-09-07T08:55:48.883Z,56.39
2017-09-07T08:58:16.803Z,56.73
2017-09-07T09:00:44.777Z,57.98
2017-09-07T09:03:12.688Z,58.34
2017-09-07T09:05:40.592Z,58.50
2017-09-07T09:08:08.698Z,59.52
2017-09-07T09:10:36.701Z,60.19
2017-09-07T09:13:04.607Z,59.10
2017-09-07T09:15:32.518Z,58.48
2017-09-07T09:18:00.507Z,56.92
2017-09-07T09:20:28.410Z,58.82
2017-09-07T09:22:56.728Z,59.99
2017-09-07T09:25:24.819Z,60.78
2017-09-07T09:27:52.710Z,61.70
2017-09-07T09:30:20.662Z,61.12
2017-09-07T09:32:48.559Z,59.40
2017-09-07T09:35:16.455Z,56.57
2017-09-07T09:37:44.378Z,55.10
2017-09-07T09:40:12.328Z,53.00
2017-09-07T09:42:40.292Z,52.10
2017-09-07T09:45:08.264Z,53.26
2017-09-07T09:47:36.172Z,55.50
2017-09-07T09:50:04.067Z,56.22
2017-09-07T09:52:32.063Z,56.89
2017-09-07T09:55:00.035Z,56.88
2017-09-07T09:57:27.963Z,58.58
2017-09-07T09:59:55.899Z,58.56
2017-09-07T10:02:23.791Z,59.07
2017-09-07T10:04:51.707Z,59.88
2017-09-07T10:07:19.631Z,59.81
2017-09-07T10:09:47.880Z,59.37
2017-09-07T10:12:15.823Z,58.62
2017-09-07T10:14:43.787Z,57.11
2017-09-07T10:17:11.686Z,54.17
2017-09-07T10:19:39.586Z,52.81
2017-09-07T10:22:07.507Z,52.30
2017-09-07T10:24:35.408Z,57.09
2017-09-07T10:27:03.440Z,58.99
2017-09-07T10:29:31.990Z,60.53
2017-09-07T10:31:59.979Z,61.92
2017-09-07T10:34:27.948Z,63.04
2017-09-07T10:36:55.908Z,63.42
2017-09-07T10:39:23.878Z,63.20
2017-09-07T10:41:51.776Z,61.08
2017-09-07T10:44:19.704Z,57.48
2017-09-07T10:46:48.301Z,53.51
2017-09-07T10:49:16.279Z,51.12
2017-09-07T10:51:44.195Z,50.62
2017-09-07T10:54:12.092Z,51.69
2017-09-07T10:56:40.065Z,53.95
2017-09-07T10:59:08.002Z,56.76
2017-09-07T11:01:35.919Z,58.67
2017-09-07T11:04:03.818Z,60.94
2017-09-07T11:06:31.756Z,60.88
2017-09-07T11:08:59.654Z,60.03
2017-09-07T11:11:27.547Z,58.50
2017-09-07T11:13:55.472Z,57.17
2017-09-07T11:16:23.374Z,56.61
2017-09-07T11:18:51.282Z,56.28
2017-09-07T11:21:19.214Z,55.05
2017-09-07T11:23:47.115Z,56.28
2017-09-07T11:26:15.043Z,56.86
2017-09-07T11:28:43.047Z,57.35
2017-09-07T11:31:10.982Z,57.32
2017-09-07T11:33:38.995Z,58.00
2017-09-07T11:36:06.975Z,58.74
2017-09-07T11:38:35.519Z,59.50
2017-09-07T11:41:03.502Z,66.50
2017-09-07T11:43:31.427Z,71.27
2017-09-07T11:45:59.327Z,72.40
2017-09-07T11:48:27.223Z,73.93
2017-09-07T11:50:55.150Z,72.25
2017-09-07T11:53:23.051Z,72.00
2017-09-07T11:55:50.978Z,69.78
2017-09-07T11:58:18.890Z,68.44
2017-09-07T12:00:46.803Z,67.31
2017-09-07T12:03:14.710Z,67.93
2017-09-07T12:05:42.683Z,66.20
2017-09-07T12:08:10.654Z,65.97
2017-09-07T12:10:38.620Z,65.02
2017-09-07T12:13:06.655Z,64.60
2017-09-07T12:15:34.560Z,64.61
2017-09-07T12:18:02.460Z,62.94
2017-09-07T12:20:30.370Z,62.61
2017-09-07T12:22:58.278Z,62.05
2017-09-07T12:25:26.272Z,61.76
2017-09-07T12:27:54.194Z,61.57
2017-09-07T12:30:22.167Z,61.14
2017-09-07T12:32:50.096Z,60.61
2017-09-07T12:35:18.108Z,59.76
2017-09-07T12:37:46.080Z,60.04
2017-09-07T12:40:13.980Z,61.42
2017-09-07T12:42:41.896Z,61.40
2017-09-07T12:45:09.815Z,60.85
2017-09-07T12:47:37.730Z,61.59
2017-09-07T12:50:05.643Z,61.47
2017-09-07T12:52:33.589Z,62.22
2017-09-07T12:55:01.496Z,62.54
2017-09-07T12:57:29.427Z,62.27
2017-09-07T12:59:58.203Z,61.15
2017-09-07T13:02:26.099Z,60.47
2017-09-07T13:04:54.016Z,60.46
2017-09-07T13:07:21.920Z,59.96
2017-09-07T13:09:49.845Z,60.56
2017-09-07T13:12:17.762Z,61.05
2017-09-07T13:14:45.684Z,61.49
2017-09-07T13:17:13.582Z,61.38
2017-09-07T13:19:41.550Z,62.06
2017-09-07T13:22:10.118Z,62.05
2017-09-07T13:24:38.018Z,62.69
2017-09-07T13:27:06.340Z,64.17
2017-09-07T13:29:34.254Z,64.70
2017-09-07T13:32:02.207Z,64.64
2017-09-07T13:34:30.137Z,65.20
2017-09-07T13:36:58.143Z,66.86
2017-09-07T13:39:26.098Z,66.54
2017-09-07T13:41:54.071Z,65.48
2017-09-07T13:44:22.047Z,65.38
2017-09-07T13:46:50.011Z,65.28
2017-09-07T13:49:17.980Z,65.01
2017-09-07T13:51:45.967Z,65.18
2017-09-07T13:54:13.874Z,63.74
2017-09-07T13:56:41.892Z,64.16
2017-09-07T13:59:09.859Z,63.47
2017-09-07T14:01:37.823Z,64.05
2017-09-07T14:04:05.744Z,64.56
2017-09-07T14:06:33.728Z,64.13
2017-09-07T14:09:01.628Z,64.02
2017-09-07T14:11:29.557Z,63.64
2017-09-07T14:13:57.454Z,63.68
2017-09-07T14:16:25.359Z,63.16
2017-09-07T14:18:53.288Z,62.55
2017-09-07T14:21:21.272Z,62.28
2017-09-07T14:23:49.171Z,61.57
2017-09-07T14:26:17.105Z,61.24
2017-09-07T14:28:45.006Z,61.53
2017-09-07T14:31:12.900Z,62.40
2017-09-07T14:33:40.872Z,63.54
2017-09-07T14:36:08.840Z,64.06
2017-09-07T14:38:36.787Z,64.89
2017-09-07T14:41:04.721Z,64.71
2017-09-07T14:43:32.649Z,65.31
2017-09-07T14:46:00.551Z,65.48
2017-09-07T14:48:28.467Z,66.22
2017-09-07T14:50:56.372Z,66.68
2017-09-07T14:53:24.269Z,66.67
2017-09-07T14:55:52.185Z,67.09
2017-09-07T14:58:20.079Z,66.93
2017-09-07T15:00:48.013Z,66.82
2017-09-07T15:03:15.950Z,66.31
2017-09-07T15:05:43.855Z,66.84
2017-09-07T15:08:11.755Z,66.75
2017-09-07T15:10:39.724Z,67.10
2017-09-07T15:13:07.628Z,67.79
2017-09-07T15:15:35.529Z,67.54
2017-09-07T15:18:03.457Z,67.46
2017-09-07T15:20:31.367Z,67.60
2017-09-07T15:22:59.361Z,67.37
2017-09-07T15:25:27.328Z,67.81
2017-09-07T15:27:55.230Z,68.22
2017-09-07T15:30:23.543Z,68.65
2017-09-07T15:32:51.464Z,68.79
2017-09-07T15:35:19.358Z,68.40
2017-09-07T15:37:47.259Z,68.38
2017-09-07T15:40:15.242Z,67.97
2017-09-07T15:42:43.149Z,68.56
2017-09-07T15:45:11.055Z,68.78
2017-09-07T15:47:39.051Z,69.03
2017-09-07T15:50:06.952Z,68.52
2017-09-07T15:52:34.883Z,68.58
2017-09-07T15:55:02.858Z,68.69
2017-09-07T15:57:30.763Z,69.03
2017-09-07T15:59:58.680Z,69.31
2017-09-07T16:02:26.595Z,69.57
2017-09-07T16:04:54.491Z,69.00
2017-09-07T16:07:22.492Z,68.87
2017-09-07T16:09:50.429Z,68.35
2017-09-07T16:12:18.458Z,68.01
2017-09-07T16:14:46.360Z,68.02
2017-09-07T16:17:14.273Z,67.95
2017-09-07T16:19:42.179Z,67.92
2017-09-07T16:22:10.100Z,67.78
2017-09-07T16:24:38.033Z,67.78
2017-09-07T16:27:06.041Z,68.27
2017-09-07T16:29:34.006Z,68.06
2017-09-07T16:32:01.971Z,67.19
2017-09-07T16:34:29.941Z,67.11
2017-09-07T16:36:57.874Z,66.35
2017-09-07T16:39:25.878Z,66.64
2017-09-07T16:41:53.780Z,66.35
2017-09-07T16:44:21.688Z,65.58
2017-09-07T16:46:49.602Z,65.58
2017-09-07T16:49:17.512Z,65.70
2017-09-07T16:51:45.406Z,65.75
2017-09-07T16:54:13.327Z,65.90
2017-09-07T16:56:41.243Z,66.03
2017-09-07T16:59:09.140Z,66.33
2017-09-07T17:01:37.054Z,66.56
2017-09-07T17:04:04.947Z,66.54
2017-09-07T17:06:32.848Z,67.01
2017-09-07T17:09:00.772Z,66.94
2017-09-07T17:11:28.760Z,67.31
2017-09-07T17:13:56.685Z,67.68
2017-09-07T17:16:24.694Z,68.01
2017-09-07T17:18:52.623Z,68.24
2017-09-07T17:21:20.551Z,68.35
2017-09-07T17:23:48.549Z,68.50
2017-09-07T17:26:16.474Z,68.73
2017-09-07T17:28:44.372Z,68.97
2017-09-07T17:31:12.293Z,69.60
2017-09-07T17:33:40.207Z,70.28
2017-09-07T17:36:08.116Z,70.49
2017-09-07T17:38:36.034Z,71.34
2017-09-07T17:41:03.956Z,72.19
2017-09-07T17:43:31.851Z,72.79
2017-09-07T17:45:59.775Z,73.40
2017-09-07T17:48:27.677Z,73.59
2017-09-07T17:50:55.576Z,73.88
2017-09-07T17:53:23.503Z,74.42
2017-09-07T17:55:51.413Z,75.15
2017-09-07T17:58:19.315Z,75.02
2017-09-07T18:00:47.318Z,75.36
2017-09-07T18:03:15.222Z,74.77
2017-09-07T18:05:43.127Z,74.39
2017-09-07T18:08:11.111Z,74.16
2017-09-07T18:10:39.022Z,74.29
2017-09-07T18:13:06.947Z,74.33
2017-09-07T18:15:34.893Z,74.70
2017-09-07T18:18:02.906Z,74.78
2017-09-07T18:20:30.799Z,74.47
2017-09-07T18:22:58.789Z,74.54
2017-09-07T18:25:26.685Z,74.32
2017-09-07T18:27:54.591Z,74.33
2017-09-07T18:30:22.511Z,74.35
2017-09-07T18:32:50.406Z,74.36
2017-09-07T18:35:18.307Z,74.38
2017-09-07T18:37:46.227Z,74.69
2017-09-07T18:40:14.136Z,74.51
2017-09-07T18:42:42.050Z,74.85
2017-09-07T18:45:09.975Z,74.51
2017-09-07T18:47:37.907Z,74.60
2017-09-07T18:50:05.870Z,74.51
2017-09-07T18:52:33.799Z,74.67
2017-09-07T18:55:01.694Z,74.84
2017-09-07T18:57:29.599Z,75.07
2017-09-07T18:59:57.519Z,74.75
2017-09-07T19:02:25.512Z,74.75
2017-09-07T19:04:53.407Z,74.61
2017-09-07T19:07:21.322Z,74.55
2017-09-07T19:09:49.275Z,74.53
2017-09-07T19:12:17.279Z,74.51
2017-09-07T19:14:45.241Z,74.61
2017-09-07T19:17:13.138Z,74.41
2017-09-07T19:19:41.035Z,74.31
2017-09-07T19:22:08.966Z,74.48
2017-09-07T19:24:36.867Z,74.27
2017-09-07T19:27:04.776Z,74.25
2017-09-07T19:29:32.699Z,74.09
2017-09-07T19:32:00.595Z,74.16
2017-09-07T19:34:28.493Z,74.13
2017-09-07T19:36:56.406Z,74.10
2017-09-07T19:39:24.315Z,73.93
2017-09-07T19:41:52.208Z,74.16
2017-09-07T19:44:20.126Z,74.05
2017-09-07T19:46:48.037Z,74.03
2017-09-07T19:49:15.930Z,73.68
2017-09-07T19:51:43.845Z,73.74
2017-09-07T19:54:11.734Z,73.54
2017-09-07T19:56:39.691Z,73.76
2017-09-07T19:59:07.677Z,73.96
2017-09-07T20:01:35.582Z,74.08
2017-09-07T20:04:03.532Z,74.36
2017-09-07T20:06:31.464Z,74.48
2017-09-07T20:08:59.372Z,74.35
2017-09-07T20:11:27.263Z,74.31
2017-09-07T20:13:55.266Z,74.19
2017-09-07T20:16:23.335Z,74.01
2017-09-07T20:18:51.231Z,74.13
2017-09-07T20:21:19.159Z,74.27
2017-09-07T20:23:47.051Z,74.23
2017-09-07T20:26:15.010Z,74.33
2017-09-07T20:28:42.984Z,74.17
2017-09-07T20:31:10.875Z,74.27
2017-09-07T20:33:38.807Z,73.72
2017-09-07T20:36:06.722Z,73.47
2017-09-07T20:38:34.648Z,73.50
2017-09-07T20:41:02.551Z,73.82
2017-09-07T20:43:30.859Z,74.46
2017-09-07T20:45:58.780Z,74.54
2017-09-07T20:48:26.827Z,75.05
2017-09-07T20:50:54.756Z,75.33
2017-09-07T20:53:22.656Z,75.70
2017-09-07T20:55:50.559Z,75.87
2017-09-07T20:58:18.498Z,75.93
2017-09-07T21:00:46.478Z,76.61
2017-09-07T21:03:14.400Z,76.22
2017-09-07T21:05:42.431Z,76.23
2017-09-07T21:08:10.365Z,75.67
2017-09-07T21:10:38.271Z,75.53
2017-09-07T21:13:06.192Z,75.46
2017-09-07T21:15:34.187Z,75.01
2017-09-07T21:18:02.084Z,74.94
2017-09-07T21:20:29.995Z,74.26
2017-09-07T21:22:57.895Z,74.33
2017-09-07T21:25:25.815Z,74.12
2017-09-07T21:27:53.784Z,74.13
2017-09-07T21:30:21.687Z,74.08
2017-09-07T21:32:49.583Z,73.62
2017-09-07T21:35:17.510Z,73.52
2017-09-07T21:37:45.779Z,73.69
2017-09-07T21:40:13.676Z,73.79
2017-09-07T21:42:41.634Z,74.37
2017-09-07T21:45:09.603Z,75.04
2017-09-07T21:47:37.883Z,74.95
2017-09-07T21:50:05.799Z,74.89
2017-09-07T21:52:33.707Z,75.07
2017-09-07T21:55:01.716Z,75.36
2017-09-07T21:57:29.635Z,75.06
2017-09-07T21:59:57.616Z,75.07
2017-09-07T22:02:25.551Z,74.51
2017-09-07T22:04:53.551Z,74.90
2017-09-07T22:07:21.454Z,74.75
2017-09-07T22:09:49.355Z,74.61
2017-09-07T22:12:17.271Z,74.88
2017-09-07T22:14:45.223Z,74.67
2017-09-07T22:17:13.127Z,74.93
2017-09-07T22:19:41.043Z,75.20
2017-09-07T22:22:08.944Z,75.32
2017-09-07T22:24:36.848Z,75.53
2017-09-07T22:27:04.759Z,75.62
2017-09-07T22:29:32.652Z,75.59
2017-09-07T22:32:00.587Z,75.74
2017-09-07T22:34:28.562Z,75.64
2017-09-07T22:36:56.461Z,75.52
2017-09-07T22:39:24.403Z,76.11
2017-09-07T22:41:52.335Z,76.13
2017-09-07T22:44:20.235Z,76.29
2017-09-07T22:46:48.206Z,76.56
2017-09-07T22:49:16.167Z,76.32
2017-09-07T22:51:44.077Z,76.61
2017-09-07T22:54:12.007Z,76.89
2017-09-07T22:56:39.922Z,76.66
2017-09-07T22:59:07.835Z,76.73
2017-09-07T23:01:35.730Z,76.32
2017-09-07T23:04:03.675Z,76.61
2017-09-07T23:06:31.755Z,77.08
2017-09-07T23:08:59.646Z,77.07
2017-09-07T23:11:27.568Z,76.88
2017-09-07T23:13:55.471Z,76.84
2017-09-07T23:16:23.379Z,76.59
2017-09-07T23:18:51.291Z,76.55
2017-09-07T23:21:19.247Z,76.58
2017-09-07T23:23:47.143Z,76.69
2017-09-07T23:26:15.067Z,76.78
2017-09-07T23:28:43.059Z,76.59
2017-09-07T23:31:11.027Z,76.53
2017-09-07T23:33:39.003Z,77.01
2017-09-07T23:36:06.959Z,76.73
2017-09-07T23:38:34.863Z,77.07
2017-09-07T23:41:02.791Z,77.76
2017-09-07T23:43:30.767Z,78.38
2017-09-07T23:45:58.674Z,78.51
2017-09-07T23:48:26.592Z,78.60
2017-09-07T23:50:54.487Z,79.40
2017-09-07T23:53:22.392Z,79.92
2017-09-07T23:55:50.303Z,80.20
2017-09-07T23:58:18.212Z,80.37
